Time;durP1;ratioP1;P1;durP2;ratioP2;P2;SDS_P1;SDS_P2;PMS_P1;PMS_P2;Temp;Humidity;BMP_temperature;BMP_pressure;BME280_temperature;BME280_humidity;BME280_pressure;Samples;Min_cycle;Max_cycle;Signal;HPM_P1;HPM_P2
2023/03/12 00:01:38;;;;;;;5.23;2.87;;;;;;;8.73;72.56;97097.88;5005146;28;20126;-66
2023/03/12 00:04:04;;;;;;;3.03;2.73;;;;;;;8.51;72.61;97084.09;5054551;28;20102;-67
2023/03/12 00:06:30;;;;;;;2.87;2.40;;;;;;;8.75;71.87;97080.75;5038154;28;20041;-66
2023/03/12 00:08:57;;;;;;;17.27;3.37;;;;;;;8.76;72.39;97085.06;5037493;28;20067;-66
2023/03/12 00:11:23;;;;;;;4.57;3.13;;;;;;;8.67;72.61;97073.06;5037962;28;20120;-66
2023/03/12 00:13:51;;;;;;;6.90;3.30;;;;;;;8.89;72.49;97073.63;5054426;28;20055;-67
2023/03/12 00:16:17;;;;;;;6.63;3.40;;;;;;;8.77;72.23;97049.63;5053998;28;20181;-66
2023/03/12 00:18:43;;;;;;;3.30;3.00;;;;;;;8.83;71.98;97054.06;5021050;28;20036;-66
2023/03/12 00:21:09;;;;;;;6.57;3.17;;;;;;;8.97;72.01;97058.28;5021349;28;20051;-66
2023/03/12 00:23:36;;;;;;;4.77;3.40;;;;;;;9.04;72.32;97050.34;5054431;28;20123;-66
2023/03/12 00:26:04;;;;;;;4.87;3.10;;;;;;;9.39;71.73;97044.44;5037550;28;20536;-66
2023/03/12 00:28:30;;;;;;;5.90;3.50;;;;;;;9.14;71.77;97046.19;5037460;28;20109;-67
2023/03/12 00:30:57;;;;;;;4.60;3.43;;;;;;;9.32;71.63;97034.88;5021332;28;20040;-66
2023/03/12 00:33:26;;;;;;;11.27;3.70;;;;;;;9.45;73.05;97024.22;5054339;28;20036;-66
2023/03/12 00:35:52;;;;;;;6.30;4.00;;;;;;;9.36;72.12;97020.22;5037596;28;20080;-67
2023/03/12 00:38:19;;;;;;;8.63;4.30;;;;;;;9.36;71.71;97018.38;5021237;28;20068;-65
2023/03/12 00:40:45;;;;;;;9.83;4.20;;;;;;;9.37;72.35;97011.22;5054118;28;20480;-66
2023/03/12 00:43:10;;;;;;;7.90;4.80;;;;;;;9.48;72.15;97011.38;5037470;28;20051;-66
2023/03/12 00:45:36;;;;;;;20.83;5.27;;;;;;;9.44;72.59;97004.84;5037326;28;20135;-66
2023/03/12 00:48:02;;;;;;;10.27;5.47;;;;;;;9.47;72.70;96991.19;5037444;28;20369;-65
2023/03/12 00:50:28;;;;;;;11.73;5.57;;;;;;;9.32;73.75;97001.28;5037430;28;20036;-66
2023/03/12 00:52:54;;;;;;;22.80;7.18;;;;;;;9.45;73.54;96980.00;5004177;28;20531;-66
2023/03/12 00:55:19;;;;;;;22.55;7.95;;;;;;;9.48;73.26;96968.97;5002776;28;20505;-66
2023/03/12 00:57:45;;;;;;;17.10;7.83;;;;;;;9.83;72.74;96971.94;5002424;28;20135;-68
2023/03/12 01:00:12;;;;;;;65.55;9.07;;;;;;;9.89;72.09;96976.34;5034845;28;20060;-67
2023/03/12 01:02:38;;;;;;;43.47;10.25;;;;;;;9.99;71.59;96960.78;5035306;28;20040;-67
2023/03/12 01:05:09;;;;;;;42.92;10.02;;;;;;;10.08;73.06;96978.88;5002211;28;20376;-67
2023/03/12 01:07:35;;;;;;;127.95;13.77;;;;;;;9.62;73.88;96959.06;5018998;28;20135;-67
2023/03/12 01:10:01;;;;;;;113.95;13.85;;;;;;;9.65;75.32;96948.88;5003222;28;20143;-66
2023/03/12 01:12:27;;;;;;;123.55;14.00;;;;;;;9.61;75.57;96937.06;5020699;28;20044;-70
2023/03/12 01:14:53;;;;;;;261.23;19.85;;;;;;;9.72;75.55;96927.59;5037003;28;20047;-66
2023/03/12 01:17:18;;;;;;;207.32;17.80;;;;;;;9.95;74.53;96946.31;5004521;28;20076;-66
2023/03/12 01:19:47;;;;;;;64.18;14.85;;;;;;;10.29;72.71;96935.19;5037007;28;20538;-66
2023/03/12 01:22:12;;;;;;;148.98;19.27;;;;;;;10.30;72.30;96933.34;5037088;28;20140;-66
2023/03/12 01:24:40;;;;;;;522.75;30.73;;;;;;;10.26;72.12;96925.00;5020742;28;20135;-66
2023/03/12 01:27:06;;;;;;;249.95;23.77;;;;;;;10.39;72.40;96927.53;5022868;28;20049;-66
2023/03/12 01:29:32;;;;;;;176.98;19.52;;;;;;;10.40;71.72;96936.28;5040723;28;20044;-66
2023/03/12 01:32:00;;;;;;;103.70;18.85;;;;;;;10.52;71.80;96930.00;5007932;28;20036;-66
2023/03/12 01:34:26;;;;;;;154.88;20.25;;;;;;;10.41;71.87;96924.66;5031784;28;20052;-66
2023/03/12 01:36:52;;;;;;;185.77;19.83;;;;;;;10.29;72.54;96913.97;5053383;28;20068;-66
2023/03/12 01:39:18;;;;;;;306.73;26.58;;;;;;;10.35;72.89;96925.53;5035962;28;20072;-66
2023/03/12 01:41:44;;;;;;;84.45;19.10;;;;;;;10.56;72.73;96917.94;5020991;28;20053;-66
2023/03/12 01:44:13;;;;;;;214.18;23.67;;;;;;;10.79;73.63;96911.91;5024077;28;20468;-66
2023/03/12 01:46:47;;;;;;;153.07;20.80;;;;;;;10.77;73.02;96912.13;5057058;28;20055;-66
2023/03/12 01:49:33;;;;;;;106.57;22.05;;;;;;;10.95;73.29;96904.09;5041656;28;20131;-66
2023/03/12 01:52:16;;;;;;;73.90;19.55;;;;;;;10.62;73.36;96894.97;5056893;28;20186;-66
2023/03/12 01:54:55;;;;;;;185.07;22.70;;;;;;;11.03;73.12;96892.34;5024562;28;20044;-68
2023/03/12 01:57:33;;;;;;;79.53;21.13;;;;;;;10.85;73.80;96882.63;5023798;28;20052;-66
2023/03/12 02:00:06;;;;;;;68.88;18.83;;;;;;;11.04;73.59;96875.38;5040214;28;20052;-66
2023/03/12 02:02:43;;;;;;;65.60;18.02;;;;;;;10.95;73.65;96885.50;5058168;28;20386;-66
2023/03/12 02:05:27;;;;;;;64.18;18.45;;;;;;;10.98;74.15;96871.78;5057089;28;20404;-66
2023/03/12 02:07:53;;;;;;;84.95;19.75;;;;;;;10.68;73.98;96864.88;5040276;28;20044;-66
2023/03/12 02:10:21;;;;;;;61.20;18.80;;;;;;;10.68;73.69;96867.53;5040293;28;20068;-66
2023/03/12 02:12:47;;;;;;;59.30;18.90;;;;;;;10.64;73.35;96859.22;5023724;28;20055;-67
2023/03/12 02:15:13;;;;;;;54.08;18.42;;;;;;;10.74;72.89;96853.34;5039711;28;20083;-67
2023/03/12 02:17:39;;;;;;;64.07;18.63;;;;;;;10.90;72.84;96853.50;5039661;28;20075;-66
2023/03/12 02:20:09;;;;;;;57.70;17.25;;;;;;;10.61;73.23;96842.94;5023199;28;20037;-66
2023/03/12 02:22:38;;;;;;;51.13;16.20;;;;;;;11.01;72.85;96847.44;5023238;28;20059;-67
2023/03/12 02:25:13;;;;;;;49.30;16.45;;;;;;;10.96;73.45;96836.66;5056016;28;20041;-66
2023/03/12 02:27:39;;;;;;;53.53;16.67;;;;;;;10.86;73.18;96831.13;5039391;28;20424;-66
2023/03/12 02:30:05;;;;;;;51.85;15.00;;;;;;;10.80;72.76;96826.72;5056049;28;20044;-66
2023/03/12 02:32:35;;;;;;;47.60;15.30;;;;;;;11.05;72.33;96823.88;5039339;28;20368;-66
2023/03/12 02:35:02;;;;;;;44.97;15.35;;;;;;;10.93;73.09;96821.19;5006459;28;20160;-66
2023/03/12 02:37:29;;;;;;;48.97;15.05;;;;;;;10.69;72.70;96813.41;5039015;28;20036;-65
2023/03/12 02:40:01;;;;;;;47.67;15.15;;;;;;;10.93;73.41;96799.16;5057745;28;20044;-66
2023/03/12 02:42:28;;;;;;;41.65;14.95;;;;;;;10.92;72.88;96810.81;5059992;28;20040;-66
2023/03/12 02:44:54;;;;;;;42.42;14.75;;;;;;;10.79;72.62;96795.91;5043108;28;20050;-66
2023/03/12 02:47:20;;;;;;;52.33;16.67;;;;;;;10.91;72.47;96796.75;5042358;28;20051;-66
2023/03/12 02:49:46;;;;;;;47.33;15.82;;;;;;;10.87;72.07;96787.59;5058364;28;20078;-67
2023/03/12 02:52:12;;;;;;;33.10;14.43;;;;;;;10.82;72.20;96792.00;5073722;28;20514;-66
2023/03/12 02:54:40;;;;;;;43.75;15.73;;;;;;;11.10;72.01;96778.88;5073583;28;20063;-66
2023/03/12 02:57:05;;;;;;;37.20;14.98;;;;;;;10.91;71.54;96774.69;5041515;28;20197;-66
2023/03/12 02:59:32;;;;;;;48.10;15.45;;;;;;;11.09;71.71;96782.53;5058478;28;20062;-69
2023/03/12 03:01:59;;;;;;;41.28;15.20;;;;;;;11.22;72.40;96761.09;5042251;28;20513;-69
2023/03/12 03:04:27;;;;;;;39.95;14.65;;;;;;;11.32;72.13;96756.78;5042544;28;20062;-66
2023/03/12 03:06:53;;;;;;;37.05;14.15;;;;;;;11.29;70.88;96785.66;5058956;28;20054;-66
2023/03/12 03:09:21;;;;;;;36.60;14.25;;;;;;;11.24;71.68;96756.34;5058542;28;20056;-66
2023/03/12 03:11:48;;;;;;;45.45;15.90;;;;;;;11.12;72.04;96756.34;5025901;28;20097;-68
2023/03/12 03:14:14;;;;;;;51.13;15.57;;;;;;;11.09;72.27;96746.19;5041813;28;20140;-66
2023/03/12 03:16:40;;;;;;;60.38;16.42;;;;;;;10.97;72.23;96747.22;5058274;28;20055;-67
2023/03/12 03:19:06;;;;;;;52.78;15.02;;;;;;;11.26;72.09;96738.31;5041798;28;20048;-67
2023/03/12 03:21:33;;;;;;;58.38;15.73;;;;;;;11.32;71.64;96738.19;5058260;28;20132;-66
2023/03/12 03:24:00;;;;;;;55.85;15.65;;;;;;;11.32;71.51;96742.69;5058523;28;20036;-72
2023/03/12 03:26:26;;;;;;;61.15;14.90;;;;;;;11.33;71.75;96731.84;5075362;28;20044;-66
2023/03/12 03:28:52;;;;;;;51.25;15.65;;;;;;;11.30;71.65;96724.34;5025196;28;20116;-66
2023/03/12 03:31:18;;;;;;;105.15;17.98;;;;;;;11.29;72.01;96724.56;5041707;28;20491;-66
2023/03/12 03:33:44;;;;;;;59.53;16.90;;;;;;;11.19;71.84;96734.97;5041436;28;20040;-67
2023/03/12 03:36:15;;;;;;;83.20;17.92;;;;;;;11.16;72.66;96715.00;5025544;28;20044;-66
2023/03/12 03:38:49;;;;;;;79.88;19.55;;;;;;;11.24;72.91;96714.63;5027769;28;20055;-67
2023/03/12 03:41:18;;;;;;;240.00;24.65;;;;;;;11.18;73.03;96717.41;5041373;28;20051;-66
2023/03/12 03:43:45;;;;;;;59.38;18.45;;;;;;;11.27;74.68;96706.19;5025048;28;20046;-66
2023/03/12 03:46:12;;;;;;;86.28;19.17;;;;;;;11.55;73.26;96692.97;5058061;28;20043;-67
2023/03/12 03:48:41;;;;;;;460.70;33.53;;;;;;;11.30;72.68;96695.09;5025522;28;20039;-66
2023/03/12 03:51:09;;;;;;;107.03;21.13;;;;;;;11.57;73.66;96693.56;5074665;28;20495;-66
2023/03/12 03:53:39;;;;;;;192.25;23.20;;;;;;;11.45;72.95;96684.00;5057551;28;20396;-66
2023/03/12 03:56:10;;;;;;;286.67;28.38;;;;;;;11.60;73.31;96678.97;5041049;28;20056;-67
2023/03/12 03:58:40;;;;;;;137.18;21.10;;;;;;;11.48;72.37;96659.63;5058413;28;20054;-66
2023/03/12 04:01:06;;;;;;;425.17;30.67;;;;;;;11.41;72.26;96667.72;5041081;28;20133;-66
2023/03/12 04:03:33;;;;;;;122.03;21.10;;;;;;;11.37;73.25;96666.59;5057725;28;20036;-66
2023/03/12 04:06:01;;;;;;;450.42;34.38;;;;;;;11.63;74.27;96662.59;5041106;28;20250;-67
2023/03/12 04:08:28;;;;;;;222.07;24.98;;;;;;;11.38;73.43;96657.56;5057885;28;20395;-66
2023/03/12 04:10:54;;;;;;;100.63;21.83;;;;;;;11.26;73.74;96650.66;5040794;28;20563;-67
2023/03/12 04:13:20;;;;;;;90.75;22.63;;;;;;;11.34;74.96;96637.00;5057457;28;20079;-70
2023/03/12 04:15:56;;;;;;;90.40;21.95;;;;;;;11.48;74.70;96639.19;5040773;28;20050;-66
2023/03/12 04:18:22;;;;;;;80.72;20.65;;;;;;;11.47;73.83;96634.88;5057512;28;20599;-66
2023/03/12 04:20:49;;;;;;;52.03;16.80;;;;;;;11.65;74.35;96628.63;5040714;28;20537;-66
2023/03/12 04:23:15;;;;;;;71.47;22.33;;;;;;;11.30;74.26;96630.56;5057537;28;20048;-67
2023/03/12 04:25:41;;;;;;;64.10;17.80;;;;;;;11.40;75.11;96620.13;5057288;28;20040;-66
2023/03/12 04:28:07;;;;;;;65.60;21.40;;;;;;;11.31;74.89;96618.88;5073207;28;20058;-67
2023/03/12 04:30:37;;;;;;;64.97;21.25;;;;;;;11.46;75.58;96613.88;5056847;28;20063;-67
2023/03/12 04:33:04;;;;;;;68.95;21.25;;;;;;;11.38;75.53;96606.25;5041053;28;20044;-73
2023/03/12 04:35:31;;;;;;;65.00;19.13;;;;;;;11.57;75.00;96608.53;5041115;28;20046;-69
2023/03/12 04:37:57;;;;;;;63.42;19.23;;;;;;;11.38;76.57;96612.38;5057070;28;20387;-67
2023/03/12 04:40:24;;;;;;;69.90;22.15;;;;;;;11.03;77.56;96605.56;5024022;28;20040;-67
2023/03/12 04:42:50;;;;;;;76.40;22.88;;;;;;;11.45;76.06;96602.44;5040387;28;20500;-68
2023/03/12 04:45:17;;;;;;;59.03;21.83;;;;;;;11.22;75.99;96628.28;5040734;28;20090;-67
2023/03/12 04:47:45;;;;;;;82.82;20.70;;;;;;;11.59;75.02;96602.97;5040730;28;20048;-66
2023/03/12 04:50:11;;;;;;;74.00;21.77;;;;;;;11.81;75.40;96602.06;5040309;28;20075;-67
2023/03/12 04:52:38;;;;;;;72.88;20.90;;;;;;;11.68;76.97;96604.22;5073605;28;20047;-66
2023/03/12 04:55:06;;;;;;;63.42;20.02;;;;;;;11.64;76.30;96595.09;5057491;28;20407;-67
2023/03/12 04:57:32;;;;;;;70.22;22.42;;;;;;;11.64;75.04;96601.22;5040889;28;20173;-67
2023/03/12 04:59:58;;;;;;;69.05;22.48;;;;;;;11.55;75.67;96596.50;5040252;28;20056;-68
2023/03/12 05:02:25;;;;;;;65.72;20.25;;;;;;;11.67;76.00;96587.47;5060068;28;20062;-65
2023/03/12 05:04:54;;;;;;;61.33;20.52;;;;;;;11.77;76.94;96579.69;5044209;28;20044;-67
2023/03/12 05:07:21;;;;;;;61.65;18.92;;;;;;;11.77;76.46;96587.66;5060484;28;20185;-67
2023/03/12 05:09:47;;;;;;;63.28;20.88;;;;;;;11.43;77.25;96588.59;5043452;28;20082;-67
2023/03/12 05:12:13;;;;;;;60.83;20.17;;;;;;;11.65;76.25;96578.13;5061146;28;20090;-67
2023/03/12 05:14:39;;;;;;;55.22;19.00;;;;;;;11.68;76.76;96572.31;5044416;28;20547;-67
2023/03/12 05:17:06;;;;;;;46.03;18.67;;;;;;;11.66;76.35;96567.25;5044183;28;20032;-66
2023/03/12 05:19:33;;;;;;;58.20;18.63;;;;;;;11.80;75.76;96565.91;5027927;28;20460;-66
2023/03/12 05:21:59;;;;;;;59.40;20.95;;;;;;;11.54;75.80;96584.25;5044116;28;20084;-67
2023/03/12 05:24:27;;;;;;;61.17;18.02;;;;;;;11.75;75.78;96559.69;5044021;28;20138;-67
2023/03/12 05:26:53;;;;;;;65.45;20.17;;;;;;;11.77;75.40;96587.66;5077319;28;20047;-67
2023/03/12 05:29:22;;;;;;;76.53;22.52;;;;;;;11.53;76.80;96561.41;5044225;28;20055;-68
2023/03/12 05:31:48;;;;;;;83.95;22.50;;;;;;;11.51;76.80;96563.47;5043841;28;20044;-68
2023/03/12 05:34:15;;;;;;;96.68;23.42;;;;;;;11.52;76.84;96563.25;5060548;28;20051;-68
2023/03/12 05:36:43;;;;;;;83.80;22.63;;;;;;;11.67;76.95;96546.78;5043992;28;20044;-68
2023/03/12 05:39:10;;;;;;;92.53;23.52;;;;;;;11.65;76.96;96543.56;5043857;28;20055;-68
2023/03/12 05:41:36;;;;;;;181.27;28.27;;;;;;;11.42;77.91;96559.59;5043633;28;20502;-72
2023/03/12 05:44:12;;;;;;;109.03;25.98;;;;;;;12.24;76.24;96548.25;5061245;28;20043;-67
2023/03/12 05:46:38;;;;;;;220.98;28.80;;;;;;;11.67;76.58;96536.97;5043561;28;20055;-67
2023/03/12 05:49:04;;;;;;;109.55;24.90;;;;;;;11.82;77.53;96536.41;5060149;28;20433;-68
2023/03/12 05:51:32;;;;;;;185.15;27.10;;;;;;;11.89;77.41;96531.75;5044369;28;20040;-68
2023/03/12 05:53:58;;;;;;;203.13;28.58;;;;;;;11.97;76.76;96523.38;5043446;28;20514;-67
2023/03/12 05:56:24;;;;;;;127.30;27.00;;;;;;;11.95;76.54;96538.75;5060075;28;20134;-67
2023/03/12 05:58:50;;;;;;;220.13;29.13;;;;;;;11.82;77.01;96536.41;5043096;28;20131;-68
2023/03/12 06:01:24;;;;;;;98.78;25.25;;;;;;;12.21;78.00;96526.66;5060015;28;20044;-69
2023/03/12 06:03:51;;;;;;;111.47;28.73;;;;;;;11.84;76.40;96521.00;5062039;28;20044;-68
2023/03/12 06:06:18;;;;;;;93.72;28.15;;;;;;;12.03;76.33;96541.00;5051673;28;20063;-70
2023/03/12 06:08:44;;;;;;;117.68;28.77;;;;;;;12.14;76.29;96518.84;5074586;28;20113;-68
2023/03/12 06:11:13;;;;;;;124.60;29.05;;;;;;;12.23;76.58;96525.38;5074042;28;20043;-70
2023/03/12 06:13:39;;;;;;;126.78;29.70;;;;;;;12.12;75.44;96528.91;5073255;28;20059;-69
2023/03/12 06:16:20;;;;;;;169.63;34.95;;;;;;;12.43;76.89;96523.00;5058004;28;20613;-68
2023/03/12 06:18:47;;;;;;;137.35;31.23;;;;;;;12.14;76.36;96528.66;5057567;28;20040;-68
2023/03/12 06:21:18;;;;;;;161.05;36.50;;;;;;;12.19;76.39;96524.25;5074978;28;20387;-69
2023/03/12 06:23:46;;;;;;;351.33;42.75;;;;;;;12.07;76.15;96518.19;5074952;28;20075;-69
2023/03/12 06:26:18;;;;;;;326.55;38.83;;;;;;;12.10;77.44;96503.63;5058730;28;20044;-68
2023/03/12 06:28:45;;;;;;;179.70;33.33;;;;;;;12.48;76.94;96500.97;5091001;28;20472;-68
2023/03/12 06:31:11;;;;;;;174.70;34.28;;;;;;;12.22;76.42;96522.94;5057381;28;20150;-68
2023/03/12 06:33:37;;;;;;;370.27;40.85;;;;;;;12.34;75.59;96502.38;5041590;28;20048;-71
2023/03/12 06:36:05;;;;;;;341.73;44.42;;;;;;;12.56;75.78;96514.63;5091504;28;20047;-69
2023/03/12 06:38:32;;;;;;;401.20;41.03;;;;;;;12.43;75.73;96495.56;5056546;28;20036;-69
2023/03/12 06:41:00;;;;;;;289.73;39.22;;;;;;;12.45;76.62;96478.31;5070466;28;20036;-70
2023/03/12 06:43:28;;;;;;;731.70;58.08;;;;;;;12.71;75.13;96493.56;5037811;28;20040;-69
2023/03/12 06:45:56;;;;;;;458.40;41.03;;;;;;;12.57;75.75;96529.59;5043259;28;20040;-69
2023/03/12 06:48:23;;;;;;;217.95;34.72;;;;;;;12.49;76.70;96476.78;5037604;28;20764;-68
2023/03/12 06:50:50;;;;;;;315.90;36.67;;;;;;;12.49;75.74;96484.75;5037455;28;20056;-69
2023/03/12 06:53:16;;;;;;;190.75;34.25;;;;;;;12.40;75.71;96475.59;5054068;28;20106;-68
2023/03/12 06:55:43;;;;;;;171.13;34.15;;;;;;;12.30;77.47;96472.78;5037676;28;20087;-67
2023/03/12 06:58:09;;;;;;;117.15;30.23;;;;;;;12.54;76.33;96465.38;5023405;28;20066;-68
2023/03/12 07:00:35;;;;;;;114.20;31.48;;;;;;;12.30;75.97;96467.44;5020879;28;21574;-66
2023/03/12 07:03:01;;;;;;;121.35;30.73;;;;;;;12.65;76.12;96465.28;5081107;28;20499;-68
2023/03/12 07:05:27;;;;;;;107.00;32.10;;;;;;;12.64;74.95;96492.16;5036300;28;20058;-71
2023/03/12 07:07:53;;;;;;;111.85;30.42;;;;;;;12.58;75.20;96474.47;5035841;28;20036;-71
2023/03/12 07:10:20;;;;;;;119.72;30.15;;;;;;;12.67;75.99;96441.84;5033268;28;20451;-68
2023/03/12 07:12:46;;;;;;;129.98;30.30;;;;;;;12.76;74.69;96468.84;5050427;28;20037;-66
2023/03/12 07:15:12;;;;;;;89.55;28.40;;;;;;;12.53;75.26;96464.56;5044784;28;20400;-67
2023/03/12 07:17:38;;;;;;;101.57;28.85;;;;;;;12.51;77.35;96433.94;5039023;28;20047;-71
2023/03/12 07:20:04;;;;;;;103.80;29.90;;;;;;;12.69;76.48;96442.41;5016978;28;20044;-67
2023/03/12 07:22:30;;;;;;;112.38;30.27;;;;;;;12.41;76.38;96444.47;5021631;28;20048;-68
2023/03/12 07:24:55;;;;;;;105.00;29.70;;;;;;;12.60;76.41;96448.41;5052549;28;20110;-65
2023/03/12 07:27:21;;;;;;;148.18;32.33;;;;;;;12.55;75.52;96440.38;5019044;28;20400;-67
2023/03/12 07:29:47;;;;;;;118.45;30.20;;;;;;;12.60;76.17;96430.59;5033266;28;20056;-66
2023/03/12 07:32:12;;;;;;;230.85;37.53;;;;;;;12.48;75.76;96410.47;5034021;28;20369;-67
2023/03/12 07:34:38;;;;;;;176.32;32.90;;;;;;;12.58;75.45;96435.34;5021473;28;20060;-73
2023/03/12 07:37:04;;;;;;;179.68;34.33;;;;;;;12.61;76.53;96442.84;5029218;28;20040;-66
2023/03/12 07:39:30;;;;;;;142.35;33.10;;;;;;;12.57;76.14;96444.41;5048860;28;20123;-66
2023/03/12 07:41:56;;;;;;;155.48;32.17;;;;;;;12.72;75.46;96414.47;5053922;28;20420;-66
2023/03/12 07:44:25;;;;;;;294.58;40.83;;;;;;;12.57;76.37;96416.97;5045967;28;20368;-65
2023/03/12 07:46:51;;;;;;;215.93;36.92;;;;;;;12.83;76.12;96414.34;5036391;28;20040;-67
2023/03/12 07:49:17;;;;;;;194.98;35.00;;;;;;;12.65;76.34;96424.53;5038409;28;20384;-65
2023/03/12 07:51:44;;;;;;;143.90;34.00;;;;;;;12.55;75.83;96417.22;5038259;28;20426;-66
2023/03/12 07:54:10;;;;;;;214.73;36.85;;;;;;;12.34;76.34;96407.41;5046255;28;20047;-69
2023/03/12 07:56:35;;;;;;;142.85;35.38;;;;;;;12.51;76.03;96405.47;5051509;28;20071;-65
2023/03/12 07:59:01;;;;;;;142.40;32.60;;;;;;;12.51;76.97;96396.69;5044897;28;21299;-66
2023/03/12 08:01:30;;;;;;;158.25;38.78;;;;;;;12.35;77.33;96426.81;5036070;28;20043;-67
2023/03/12 08:04:01;;;;;;;176.05;38.00;;;;;;;12.79;78.40;96396.47;5055810;28;20032;-67
2023/03/12 08:06:28;;;;;;;158.95;39.33;;;;;;;12.59;80.82;96375.72;5038210;28;20066;-66
2023/03/12 08:08:54;;;;;;;170.48;40.10;;;;;;;12.53;84.42;96370.63;5053175;28;20040;-66
2023/03/12 08:11:20;;;;;;;163.02;39.25;;;;;;;12.58;85.13;96368.81;5048630;28;20492;-66
2023/03/12 08:13:46;;;;;;;142.70;35.75;;;;;;;12.51;85.10;96372.72;5034019;28;20166;-66
2023/03/12 08:16:13;;;;;;;113.88;34.85;;;;;;;12.22;83.86;96361.50;5050263;28;20506;-67
2023/03/12 08:18:41;;;;;;;127.50;34.75;;;;;;;12.84;85.61;96362.69;5054382;28;20188;-72
2023/03/12 08:21:10;;;;;;;136.30;33.85;;;;;;;12.34;84.39;96350.69;5055670;28;20063;-69
2023/03/12 08:23:35;;;;;;;95.80;29.10;;;;;;;12.58;87.05;96350.19;5057832;28;20052;-65
2023/03/12 08:26:01;;;;;;;106.18;30.88;;;;;;;12.43;85.75;96360.66;5038104;28;20506;-67
2023/03/12 08:28:27;;;;;;;88.30;28.42;;;;;;;12.42;90.65;96340.44;5069117;28;20138;-65
2023/03/12 08:30:59;;;;;;;79.65;27.15;;;;;;;12.25;88.44;96341.56;5053981;28;20202;-66
2023/03/12 08:33:25;;;;;;;90.78;29.10;;;;;;;12.29;88.68;96330.16;5069609;28;20051;-66
2023/03/12 08:35:52;;;;;;;85.25;26.80;;;;;;;12.46;88.27;96343.38;5038141;28;20195;-65
2023/03/12 08:38:18;;;;;;;66.20;26.60;;;;;;;12.39;86.73;96327.63;5056264;28;20387;-63
2023/03/12 08:40:43;;;;;;;81.40;26.40;;;;;;;12.60;85.22;96323.31;5055280;28;20501;-64
2023/03/12 08:43:10;;;;;;;79.55;24.88;;;;;;;12.71;85.63;96309.06;5038304;28;20044;-71
2023/03/12 08:45:36;;;;;;;66.13;22.48;;;;;;;12.89;83.46;96306.84;5029866;28;20464;-65
2023/03/12 08:48:03;;;;;;;62.65;23.27;;;;;;;12.85;81.90;96308.41;5018485;28;20053;-64
2023/03/12 08:50:30;;;;;;;59.10;21.88;;;;;;;12.40;82.07;96301.81;5036011;28;20139;-65
2023/03/12 08:52:59;;;;;;;56.60;21.67;;;;;;;12.90;82.50;96291.66;5052881;28;20044;-65
2023/03/12 08:55:28;;;;;;;51.20;21.30;;;;;;;12.56;81.23;96304.38;5036165;28;20067;-65
2023/03/12 08:57:55;;;;;;;59.42;21.85;;;;;;;13.04;82.41;96308.84;5019837;28;20071;-65
2023/03/12 09:00:21;;;;;;;43.78;20.05;;;;;;;12.70;80.77;96291.47;5035881;28;20056;-66
2023/03/12 09:02:48;;;;;;;57.28;19.85;;;;;;;12.79;81.25;96285.41;5036347;28;20082;-65
2023/03/12 09:05:14;;;;;;;52.47;18.50;;;;;;;12.90;80.73;96281.78;5019513;28;20055;-66
2023/03/12 09:07:40;;;;;;;41.15;16.20;;;;;;;12.71;79.52;96309.06;5051188;28;20048;-68
2023/03/12 09:10:07;;;;;;;50.90;17.80;;;;;;;12.69;79.18;96287.19;5036794;28;20047;-66
2023/03/12 09:12:33;;;;;;;45.25;16.52;;;;;;;12.84;81.13;96284.69;5032845;28;20048;-69
2023/03/12 09:14:59;;;;;;;48.63;17.33;;;;;;;12.92;85.96;96287.69;5053887;28;20040;-66
2023/03/12 09:17:25;;;;;;;43.70;17.10;;;;;;;12.67;81.64;96276.81;5062288;28;20134;-67
2023/03/12 09:19:50;;;;;;;47.15;18.13;;;;;;;12.74;82.93;96269.44;5062147;28;20052;-66
2023/03/12 09:22:16;;;;;;;42.70;16.23;;;;;;;12.81;80.83;96255.88;5037279;28;20541;-66
2023/03/12 09:24:42;;;;;;;37.75;14.70;;;;;;;12.58;85.23;96261.53;5020697;28;20040;-66
2023/03/12 09:27:08;;;;;;;42.50;14.88;;;;;;;12.63;85.12;96250.94;5018264;28;20041;-67
2023/03/12 09:29:35;;;;;;;39.83;15.13;;;;;;;12.71;82.89;96250.47;5044974;28;20055;-67
2023/03/12 09:32:01;;;;;;;37.25;14.73;;;;;;;12.71;82.67;96242.50;5017198;28;20040;-66
2023/03/12 09:34:26;;;;;;;32.72;13.57;;;;;;;12.92;81.29;96237.09;5065395;28;20044;-65
2023/03/12 09:36:52;;;;;;;34.20;13.82;;;;;;;12.89;81.91;96228.78;5020483;28;20048;-66
2023/03/12 09:39:20;;;;;;;28.08;12.38;;;;;;;12.77;79.78;96228.97;5053838;28;20138;-67
2023/03/12 09:41:49;;;;;;;27.58;12.82;;;;;;;12.85;79.66;96220.53;5037127;28;20222;-66
2023/03/12 09:44:33;;;;;;;25.33;11.25;;;;;;;13.21;79.90;96225.06;5055154;28;20050;-65
2023/03/12 09:47:03;;;;;;;25.27;12.00;;;;;;;13.03;77.97;96232.66;5039857;28;20130;-66
2023/03/12 09:49:45;;;;;;;24.30;11.52;;;;;;;13.12;79.84;96221.28;5092748;28;20852;-67
2023/03/12 09:52:35;;;;;;;21.23;11.20;;;;;;;13.20;78.80;96215.47;5043178;28;20523;-65
2023/03/12 09:55:13;;;;;;;25.17;11.93;;;;;;;13.29;82.40;96202.44;5074731;28;20066;-66
2023/03/12 09:57:39;;;;;;;16.90;10.20;;;;;;;12.97;78.85;96199.84;5075937;28;20040;-70
2023/03/12 10:00:12;;;;;;;20.45;10.43;;;;;;;13.07;78.63;96175.13;5042400;28;20062;-65
2023/03/12 10:03:20;;;;;;;16.40;9.57;;;;;;;13.32;78.07;96193.94;5075727;28;20040;-66
2023/03/12 10:06:02;;;;;;;15.90;9.05;;;;;;;13.13;77.92;96180.25;5075454;28;20047;-66
2023/03/12 10:08:35;;;;;;;17.52;9.43;;;;;;;13.12;78.03;96183.97;5058975;28;20111;-65
2023/03/12 10:11:08;;;;;;;14.10;9.07;;;;;;;12.96;78.02;96178.78;5058595;28;20044;-65
2023/03/12 10:14:07;;;;;;;15.27;9.10;;;;;;;13.17;76.96;96176.03;5058054;28;20051;-67
2023/03/12 10:16:51;;;;;;;15.68;9.60;;;;;;;13.30;77.70;96148.91;4957942;28;20055;-66
2023/03/12 10:19:36;;;;;;;22.30;11.05;;;;;;;13.11;76.13;96142.44;5060232;28;20490;-65
2023/03/12 10:22:04;;;;;;;14.57;9.10;;;;;;;13.25;76.27;96148.88;5058408;28;20044;-65
2023/03/12 10:24:53;;;;;;;14.65;9.88;;;;;;;13.48;75.38;96148.44;5058357;28;20036;-67
2023/03/12 10:27:23;;;;;;;15.43;9.63;;;;;;;12.72;75.74;96151.72;5041787;28;20051;-66
2023/03/12 10:29:51;;;;;;;20.80;10.73;;;;;;;13.15;77.01;96135.50;5075286;28;20047;-66
2023/03/12 10:32:36;;;;;;;20.20;11.05;;;;;;;13.38;77.19;96128.94;5074772;28;20055;-65
2023/03/12 10:35:13;;;;;;;15.90;10.57;;;;;;;13.34;75.24;96139.34;5058027;28;20434;-66
2023/03/12 10:37:43;;;;;;;17.42;11.07;;;;;;;13.43;75.49;96129.78;5041424;28;20040;-66
2023/03/12 10:40:14;;;;;;;18.63;11.03;;;;;;;13.37;74.61;96144.16;5041501;28;20044;-65
2023/03/12 10:42:40;;;;;;;17.25;11.00;;;;;;;12.85;75.88;96137.16;5040789;28;20094;-71
2023/03/12 10:45:09;;;;;;;17.55;10.98;;;;;;;13.29;76.10;96131.31;5041104;28;20040;-65
2023/03/12 10:47:39;;;;;;;24.55;12.27;;;;;;;12.71;75.84;96120.03;5058147;28;20395;-65
2023/03/12 10:50:35;;;;;;;18.92;11.38;;;;;;;13.36;75.38;96129.22;5057632;28;20056;-67
2023/03/12 10:53:21;;;;;;;20.10;11.73;;;;;;;13.38;75.68;96108.44;5040854;28;20047;-69
2023/03/12 10:55:58;;;;;;;21.98;12.43;;;;;;;13.28;75.39;96115.59;5057622;28;20403;-66
2023/03/12 10:58:25;;;;;;;18.15;11.88;;;;;;;12.96;75.07;96141.50;5074199;28;20036;-66
2023/03/12 11:00:56;;;;;;;18.88;11.43;;;;;;;13.38;78.15;96096.97;5056948;28;20079;-66
2023/03/12 11:03:28;;;;;;;20.65;11.93;;;;;;;13.35;76.24;96097.50;5073594;28;20138;-67
2023/03/12 11:05:59;;;;;;;24.90;13.13;;;;;;;13.51;76.23;96105.25;5057208;28;20055;-66
2023/03/12 11:08:35;;;;;;;21.25;12.25;;;;;;;13.43;76.26;96099.66;5057032;28;20101;-66
2023/03/12 11:11:03;;;;;;;23.65;12.88;;;;;;;13.55;75.84;96102.88;5090726;28;20055;-69
2023/03/12 11:13:32;;;;;;;23.45;13.50;;;;;;;13.39;76.01;96096.69;5073261;28;20055;-66
2023/03/12 11:16:00;;;;;;;18.38;11.13;;;;;;;13.57;75.19;96092.78;5056921;28;20100;-69
2023/03/12 11:18:35;;;;;;;19.85;11.80;;;;;;;13.40;74.71;96101.00;5057382;28;20048;-66
2023/03/12 11:21:07;;;;;;;17.45;9.48;;;;;;;13.61;74.67;96093.84;5057585;28;20059;-66
2023/03/12 11:23:36;;;;;;;17.05;11.35;;;;;;;13.45;74.62;96085.00;5056861;28;20126;-67